createdAt,value
2023-12-05T00:01:56.596Z,17.15
2023-12-05T00:04:23.460Z,16.63
2023-12-05T00:06:50.255Z,16.10
2023-12-05T00:09:17.025Z,17.08
2023-12-05T00:11:44.007Z,17.17
2023-12-05T00:14:10.625Z,16.75
2023-12-05T00:16:37.251Z,17.42
2023-12-05T00:19:03.983Z,16.58
2023-12-05T00:21:30.680Z,17.55
2023-12-05T00:23:57.333Z,17.25
2023-12-05T00:26:24.075Z,17.95
2023-12-05T00:28:51.040Z,18.55
2023-12-05T00:31:17.646Z,17.48
2023-12-05T00:33:44.930Z,18.83
2023-12-05T00:36:12.053Z,20.60
2023-12-05T00:38:38.709Z,23.77
2023-12-05T00:41:05.762Z,29.90
2023-12-05T00:43:33.081Z,28.73
2023-12-05T00:45:59.790Z,29.67
2023-12-05T00:48:26.447Z,27.23
2023-12-05T00:50:53.155Z,25.70
2023-12-05T00:53:19.819Z,23.88
2023-12-05T00:55:46.518Z,24.00
2023-12-05T00:58:13.154Z,24.35
2023-12-05T01:00:39.864Z,21.02
2023-12-05T01:03:06.731Z,19.55
2023-12-05T01:05:35.345Z,20.80
2023-12-05T01:08:02.071Z,20.70
2023-12-05T01:10:28.904Z,18.75
2023-12-05T01:12:56.266Z,19.33
2023-12-05T01:15:22.935Z,19.08
2023-12-05T01:17:49.632Z,17.58
2023-12-05T01:20:17.119Z,18.88
2023-12-05T01:22:43.832Z,16.63
2023-12-05T01:25:10.548Z,17.23
2023-12-05T01:27:37.253Z,17.00
2023-12-05T01:30:05.685Z,16.98
2023-12-05T01:32:32.468Z,16.00
2023-12-05T01:34:59.218Z,15.88
2023-12-05T01:37:25.835Z,15.18
2023-12-05T01:39:52.595Z,16.33
2023-12-05T01:42:19.294Z,17.30
2023-12-05T01:44:46.015Z,15.68
2023-12-05T01:47:14.324Z,16.73
2023-12-05T01:49:42.623Z,16.27
2023-12-05T01:52:09.917Z,15.18
2023-12-05T01:54:38.567Z,16.25
2023-12-05T01:57:07.088Z,16.40
2023-12-05T01:59:34.118Z,15.73
2023-12-05T02:02:01.060Z,16.02
2023-12-05T02:04:28.004Z,16.00
2023-12-05T02:06:54.734Z,16.02
2023-12-05T02:09:23.583Z,16.05
2023-12-05T02:11:50.282Z,16.08
2023-12-05T02:14:17.051Z,15.52
2023-12-05T02:16:57.313Z,15.73
2023-12-05T02:19:43.260Z,17.05
2023-12-05T02:22:28.774Z,16.45
2023-12-05T02:25:17.510Z,16.95
2023-12-05T02:27:45.938Z,16.58
2023-12-05T02:30:15.895Z,16.75
2023-12-05T02:32:42.738Z,15.70
2023-12-05T02:35:11.873Z,15.60
2023-12-05T02:37:56.749Z,16.20
2023-12-05T02:40:56.315Z,17.48
2023-12-05T02:44:01.983Z,16.77
2023-12-05T02:46:29.380Z,16.95
2023-12-05T02:48:57.641Z,17.38
2023-12-05T02:51:24.475Z,16.95
2023-12-05T02:53:51.127Z,17.17
2023-12-05T02:56:19.357Z,17.13
2023-12-05T02:58:46.130Z,16.65
2023-12-05T03:01:12.780Z,15.77
2023-12-05T03:03:39.462Z,16.63
2023-12-05T03:06:06.485Z,17.88
2023-12-05T03:08:33.154Z,17.50
2023-12-05T03:11:03.956Z,16.58
2023-12-05T03:13:33.930Z,17.13
2023-12-05T03:16:00.562Z,18.20
2023-12-05T03:18:27.284Z,16.63
2023-12-05T03:20:54.053Z,17.33
2023-12-05T03:23:20.885Z,18.27
2023-12-05T03:25:47.670Z,17.83
2023-12-05T03:28:14.405Z,17.20
2023-12-05T03:30:41.190Z,16.83
2023-12-05T03:33:07.917Z,16.92
2023-12-05T03:35:34.634Z,16.85
2023-12-05T03:38:01.270Z,17.00
2023-12-05T03:40:27.958Z,17.27
2023-12-05T03:42:54.641Z,17.25
2023-12-05T03:45:21.891Z,17.25
2023-12-05T03:47:48.622Z,17.15
2023-12-05T03:50:15.319Z,16.60
2023-12-05T03:52:41.893Z,15.75
2023-12-05T03:55:08.677Z,16.98
2023-12-05T03:57:35.298Z,16.88
2023-12-05T04:00:01.936Z,17.02
2023-12-05T04:02:38.062Z,17.08
2023-12-05T04:05:05.182Z,17.67
2023-12-05T04:07:32.383Z,16.45
2023-12-05T04:09:58.993Z,16.48
2023-12-05T04:12:25.604Z,18.45
2023-12-05T04:14:52.199Z,17.30
2023-12-05T04:17:18.822Z,17.85
2023-12-05T04:19:45.458Z,17.10
2023-12-05T04:22:12.136Z,18.20
2023-12-05T04:24:38.816Z,17.02
2023-12-05T04:27:05.522Z,18.00
2023-12-05T04:29:32.573Z,17.02
2023-12-05T04:32:00.393Z,17.60
2023-12-05T04:34:27.114Z,17.08
2023-12-05T04:36:53.819Z,17.20
2023-12-05T04:39:20.771Z,17.42
2023-12-05T04:41:47.461Z,17.60
2023-12-05T04:44:14.095Z,17.30
2023-12-05T04:46:40.751Z,17.80
2023-12-05T04:49:07.662Z,17.58
2023-12-05T04:51:35.136Z,17.08
2023-12-05T04:54:01.809Z,17.83
2023-12-05T04:56:28.551Z,17.60
2023-12-05T04:58:55.344Z,17.08
2023-12-05T05:01:22.007Z,18.55
2023-12-05T05:03:48.995Z,17.90
2023-12-05T05:06:15.824Z,18.75
2023-12-05T05:08:42.574Z,20.75
2023-12-05T05:11:09.193Z,18.80
2023-12-05T05:13:42.315Z,16.83
2023-12-05T05:16:12.740Z,17.60
2023-12-05T05:18:39.509Z,17.52
2023-12-05T05:21:06.953Z,16.73
2023-12-05T05:23:34.917Z,16.85
2023-12-05T05:26:01.764Z,17.13
2023-12-05T05:28:28.362Z,15.93
2023-12-05T05:30:56.045Z,16.33
2023-12-05T05:33:23.163Z,18.98
2023-12-05T05:35:49.954Z,17.70
2023-12-05T05:38:16.880Z,17.42
2023-12-05T05:40:43.762Z,17.23
2023-12-05T05:43:10.745Z,16.67
2023-12-05T05:45:37.481Z,16.65
2023-12-05T05:48:04.267Z,16.95
2023-12-05T05:50:30.891Z,19.95
2023-12-05T05:52:57.601Z,19.15
2023-12-05T05:55:26.030Z,16.80
2023-12-05T05:57:53.515Z,18.88
2023-12-05T06:00:20.388Z,17.95
2023-12-05T06:02:47.160Z,18.20
2023-12-05T06:05:13.968Z,18.05
2023-12-05T06:07:40.742Z,17.08
2023-12-05T06:10:08.141Z,15.73
2023-12-05T06:12:34.877Z,19.02
2023-12-05T06:15:01.528Z,23.52
2023-12-05T06:17:28.139Z,23.13
2023-12-05T06:19:54.757Z,23.30
2023-12-05T06:22:21.342Z,24.48
2023-12-05T06:24:48.222Z,24.88
2023-12-05T06:27:15.236Z,24.50
2023-12-05T06:29:41.841Z,20.90
2023-12-05T06:32:08.443Z,25.42
2023-12-05T06:34:35.407Z,35.13
2023-12-05T06:37:02.222Z,28.60
2023-12-05T06:39:29.801Z,26.40
2023-12-05T06:41:56.555Z,20.70
2023-12-05T06:44:23.255Z,22.10
2023-12-05T06:46:50.151Z,21.58
2023-12-05T06:49:16.914Z,21.30
2023-12-05T06:51:44.713Z,21.45
2023-12-05T06:54:11.319Z,21.83
2023-12-05T06:56:38.043Z,21.88
2023-12-05T06:59:05.095Z,23.80
2023-12-05T07:01:33.775Z,22.15
2023-12-05T07:04:01.646Z,22.20
2023-12-05T07:06:28.400Z,22.05
2023-12-05T07:08:55.169Z,22.50
2023-12-05T07:11:21.755Z,26.75
2023-12-05T07:13:49.556Z,24.65
2023-12-05T07:16:16.290Z,24.10
2023-12-05T07:18:43.075Z,24.67
2023-12-05T07:21:09.966Z,23.92
2023-12-05T07:23:37.731Z,23.48
2023-12-05T07:26:05.301Z,23.45
2023-12-05T07:28:31.904Z,24.80
2023-12-05T07:30:58.563Z,24.63
2023-12-05T07:33:25.472Z,23.73
2023-12-05T07:35:52.275Z,21.70
2023-12-05T07:38:18.920Z,21.90
2023-12-05T07:40:45.726Z,25.30
2023-12-05T07:43:12.530Z,23.35
2023-12-05T07:45:39.372Z,22.95
2023-12-05T07:48:06.287Z,22.65
2023-12-05T07:50:33.401Z,22.80
2023-12-05T07:52:59.991Z,23.48
2023-12-05T07:55:26.681Z,21.48
2023-12-05T07:57:53.320Z,21.38
2023-12-05T08:00:20.758Z,20.23
2023-12-05T08:02:47.981Z,19.73
2023-12-05T08:05:14.758Z,21.48
2023-12-05T08:07:41.416Z,21.48
2023-12-05T08:10:09.445Z,23.70
2023-12-05T08:12:36.528Z,25.52
2023-12-05T08:15:04.609Z,25.05
2023-12-05T08:17:31.277Z,22.92
2023-12-05T08:19:58.030Z,25.33
2023-12-05T08:22:26.411Z,23.02
2023-12-05T08:24:53.306Z,23.88
2023-12-05T08:27:20.056Z,21.65
2023-12-05T08:29:46.738Z,26.73
2023-12-05T08:32:13.412Z,26.55
2023-12-05T08:34:40.129Z,25.40
2023-12-05T08:37:07.061Z,24.45
2023-12-05T08:39:33.735Z,24.40
2023-12-05T08:42:00.608Z,24.88
2023-12-05T08:44:28.185Z,24.27
2023-12-05T08:46:54.872Z,23.73
2023-12-05T08:49:21.582Z,24.13
2023-12-05T08:51:48.337Z,23.38
2023-12-05T08:54:15.430Z,23.23
2023-12-05T08:56:42.131Z,23.80
2023-12-05T08:59:09.310Z,22.27
2023-12-05T09:01:35.988Z,23.02
2023-12-05T09:04:03.659Z,22.67
2023-12-05T09:06:30.558Z,24.15
2023-12-05T09:08:58.885Z,24.52
2023-12-05T09:11:25.772Z,24.92
2023-12-05T09:13:52.385Z,24.27
2023-12-05T09:16:21.218Z,25.70
2023-12-05T09:18:48.000Z,25.58
2023-12-05T09:21:14.721Z,24.42
2023-12-05T09:23:41.352Z,24.65
2023-12-05T09:26:08.398Z,26.17
2023-12-05T09:28:35.720Z,25.25
2023-12-05T09:31:02.664Z,24.70
2023-12-05T09:33:29.323Z,24.58
2023-12-05T09:35:56.165Z,25.05
2023-12-05T09:38:22.767Z,24.15
2023-12-05T09:40:52.410Z,26.80
2023-12-05T09:43:22.425Z,24.48
2023-12-05T09:48:55.622Z,24.55
2023-12-05T09:51:23.801Z,23.70
2023-12-05T09:53:53.363Z,23.52
2023-12-05T09:56:21.340Z,24.52
2023-12-05T09:58:48.725Z,23.23
2023-12-05T10:01:16.993Z,23.67
2023-12-05T10:03:54.683Z,22.25
2023-12-05T10:06:22.599Z,25.20
2023-12-05T10:08:52.222Z,25.60
2023-12-05T10:11:24.658Z,23.20
2023-12-05T10:13:51.613Z,23.63
2023-12-05T10:16:18.497Z,24.67
2023-12-05T10:18:47.746Z,26.33
2023-12-05T10:21:14.611Z,25.55
2023-12-05T10:23:41.220Z,21.75
2023-12-05T10:26:07.877Z,24.08
2023-12-05T10:28:50.025Z,28.50
2023-12-05T10:31:17.150Z,27.48
2023-12-05T10:33:43.997Z,22.75
2023-12-05T10:36:16.509Z,21.70
2023-12-05T10:38:44.894Z,21.38
2023-12-05T10:41:11.579Z,21.73
2023-12-05T10:43:38.533Z,22.08
2023-12-05T10:46:06.565Z,21.58
2023-12-05T10:48:33.481Z,21.20
2023-12-05T10:51:02.497Z,21.60
2023-12-05T10:53:29.564Z,23.15
2023-12-05T10:55:56.220Z,22.42
2023-12-05T10:58:23.055Z,22.38
2023-12-05T11:00:50.940Z,22.10
2023-12-05T11:03:18.182Z,22.33
2023-12-05T11:05:44.977Z,22.77
2023-12-05T11:08:12.274Z,22.73
2023-12-05T11:10:39.847Z,24.35
2023-12-05T11:13:07.336Z,22.60
2023-12-05T11:15:38.102Z,23.15
2023-12-05T11:18:23.376Z,22.63
2023-12-05T11:21:13.822Z,21.63
2023-12-05T11:23:58.213Z,22.50
2023-12-05T11:26:45.849Z,21.77
2023-12-05T11:29:52.602Z,20.80
2023-12-05T11:32:31.930Z,22.80
2023-12-05T11:35:12.631Z,20.42
2023-12-05T11:38:08.073Z,20.52
2023-12-05T11:40:34.841Z,19.20
2023-12-05T11:43:09.213Z,21.45
2023-12-05T11:45:43.670Z,21.35
2023-12-05T11:48:12.400Z,21.35
2023-12-05T11:50:48.982Z,20.85
2023-12-05T11:53:19.159Z,20.35
2023-12-05T11:55:48.682Z,20.90
2023-12-05T11:58:31.331Z,20.85
2023-12-05T12:01:08.067Z,18.77
2023-12-05T12:03:54.913Z,18.33
2023-12-05T12:06:24.598Z,18.15
2023-12-05T12:08:54.822Z,19.45
2023-12-05T12:11:22.347Z,19.10
2023-12-05T12:13:49.948Z,18.00
2023-12-05T12:16:18.340Z,19.15
2023-12-05T12:18:53.269Z,19.00
2023-12-05T12:21:23.579Z,17.90
2023-12-05T12:23:55.886Z,18.77
2023-12-05T12:26:22.520Z,18.38
2023-12-05T12:28:50.539Z,20.00
2023-12-05T12:31:27.063Z,18.48
2023-12-05T12:33:54.954Z,17.98
2023-12-05T12:36:23.333Z,20.20
2023-12-05T12:38:51.087Z,19.98
2023-12-05T12:41:17.929Z,19.48
2023-12-05T12:43:44.582Z,18.85
2023-12-05T12:46:11.520Z,19.10
2023-12-05T12:48:38.538Z,19.35
2023-12-05T12:51:07.162Z,19.73
2023-12-05T12:53:33.974Z,20.10
2023-12-05T12:56:00.779Z,19.27
2023-12-05T12:58:40.294Z,19.65
2023-12-05T13:01:07.016Z,19.73
2023-12-05T13:03:34.029Z,20.35
2023-12-05T13:06:01.771Z,19.85
2023-12-05T13:08:28.650Z,20.05
2023-12-05T13:10:56.453Z,20.00
2023-12-05T13:13:23.117Z,19.90
2023-12-05T13:15:50.073Z,20.45
2023-12-05T13:18:17.286Z,19.88
2023-12-05T13:20:56.328Z,19.55
2023-12-05T13:23:23.850Z,20.10
2023-12-05T13:25:50.690Z,20.38
2023-12-05T13:28:19.159Z,21.48
2023-12-05T13:30:46.004Z,21.30
2023-12-05T13:33:14.873Z,20.85
2023-12-05T13:35:42.448Z,21.20
2023-12-05T13:38:09.324Z,21.17
2023-12-05T13:40:36.149Z,21.25
2023-12-05T13:43:03.076Z,21.73
2023-12-05T13:45:29.907Z,20.80
2023-12-05T13:47:56.632Z,21.52
2023-12-05T13:50:23.391Z,20.27
2023-12-05T13:52:50.023Z,20.48
2023-12-05T13:55:16.693Z,20.10
2023-12-05T13:57:43.350Z,21.00
2023-12-05T14:00:11.620Z,24.67
2023-12-05T14:02:38.673Z,24.05
2023-12-05T14:05:08.995Z,23.10
2023-12-05T14:07:35.736Z,22.50
2023-12-05T14:10:02.559Z,23.08
2023-12-05T14:12:29.447Z,22.70
2023-12-05T14:14:56.152Z,23.10
2023-12-05T14:17:22.783Z,22.98
2023-12-05T14:19:49.421Z,21.88
2023-12-05T14:22:17.789Z,24.23
2023-12-05T14:24:44.967Z,24.75
2023-12-05T14:27:11.658Z,26.17
2023-12-05T14:29:38.246Z,25.65
2023-12-05T14:32:05.227Z,24.92
2023-12-05T14:34:31.956Z,25.33
2023-12-05T14:36:58.729Z,25.10
2023-12-05T14:39:25.461Z,24.70
2023-12-05T14:41:52.673Z,22.52
2023-12-05T14:44:19.249Z,23.00
2023-12-05T14:46:45.911Z,23.10
2023-12-05T14:49:13.962Z,22.33
2023-12-05T14:51:40.941Z,23.52
2023-12-05T14:54:07.768Z,24.75
2023-12-05T14:56:34.441Z,22.70
2023-12-05T14:59:01.279Z,22.65
2023-12-05T15:01:28.005Z,22.65
2023-12-05T15:03:54.849Z,23.27
2023-12-05T15:06:21.626Z,21.70
2023-12-05T15:08:48.417Z,22.92
2023-12-05T15:11:16.254Z,22.55
2023-12-05T15:13:43.076Z,23.42
2023-12-05T15:16:09.913Z,22.63
2023-12-05T15:18:36.864Z,22.23
2023-12-05T15:21:04.542Z,22.63
2023-12-05T15:23:31.233Z,22.40
2023-12-05T15:25:59.442Z,23.67
2023-12-05T15:28:28.906Z,23.58
2023-12-05T15:30:56.187Z,23.63
2023-12-05T15:33:23.161Z,27.50
2023-12-05T15:35:50.720Z,25.15
2023-12-05T15:38:17.357Z,23.00
2023-12-05T15:40:44.979Z,23.55
2023-12-05T15:43:12.021Z,22.67
2023-12-05T15:45:38.836Z,23.13
2023-12-05T15:48:07.206Z,21.30
2023-12-05T15:50:35.379Z,23.98
2023-12-05T15:53:04.249Z,23.17
2023-12-05T15:55:35.420Z,23.50
2023-12-05T15:58:02.120Z,22.83
2023-12-05T16:00:30.406Z,22.58
2023-12-05T16:02:57.610Z,21.80
2023-12-05T16:05:24.878Z,23.45
2023-12-05T16:07:51.675Z,23.58
2023-12-05T16:10:18.276Z,24.30
2023-12-05T16:12:52.577Z,24.63
2023-12-05T16:15:19.946Z,26.33
2023-12-05T16:17:48.170Z,27.92
2023-12-05T16:20:15.925Z,24.20
2023-12-05T16:22:42.656Z,26.65
2023-12-05T16:25:10.879Z,23.52
2023-12-05T16:27:37.620Z,24.10
2023-12-05T16:30:06.999Z,24.00
2023-12-05T16:32:35.236Z,26.60
2023-12-05T16:35:02.538Z,25.25
2023-12-05T16:37:30.292Z,24.75
2023-12-05T16:39:57.060Z,28.83
2023-12-05T16:42:23.726Z,28.40
2023-12-05T16:44:50.334Z,27.65
2023-12-05T16:47:17.401Z,25.25
2023-12-05T16:49:45.320Z,25.88
2023-12-05T16:52:12.163Z,24.27
2023-12-05T16:54:39.010Z,25.73
2023-12-05T16:57:06.038Z,25.17
2023-12-05T16:59:35.054Z,22.67
2023-12-05T17:02:02.639Z,23.50
2023-12-05T17:04:30.095Z,23.00
2023-12-05T17:06:57.052Z,26.27
2023-12-05T17:09:23.720Z,27.25
2023-12-05T17:11:50.358Z,30.60
2023-12-05T17:14:17.127Z,29.55
2023-12-05T17:16:43.771Z,28.17
2023-12-05T17:19:10.552Z,26.90
2023-12-05T17:21:37.429Z,27.27
2023-12-05T17:24:04.426Z,27.90
2023-12-05T17:26:31.322Z,34.10
2023-12-05T17:28:57.979Z,32.65
2023-12-05T17:31:24.716Z,34.67
2023-12-05T17:33:51.476Z,34.13
2023-12-05T17:36:18.189Z,30.92
2023-12-05T17:38:44.781Z,34.60
2023-12-05T17:41:11.407Z,31.70
2023-12-05T17:43:41.308Z,29.10
2023-12-05T17:46:08.211Z,27.25
2023-12-05T17:48:34.952Z,39.17
2023-12-05T17:51:01.739Z,51.72
2023-12-05T17:53:30.359Z,42.00
2023-12-05T17:55:57.928Z,27.95
2023-12-05T17:58:24.666Z,25.67
2023-12-05T18:00:51.857Z,24.67
2023-12-05T18:03:18.652Z,24.45
2023-12-05T18:05:45.290Z,35.65
2023-12-05T18:08:12.116Z,24.63
2023-12-05T18:10:40.771Z,26.83
2023-12-05T18:13:07.586Z,28.25
2023-12-05T18:15:34.394Z,30.23
2023-12-05T18:18:01.174Z,26.33
2023-12-05T18:20:27.997Z,23.52
2023-12-05T18:22:54.636Z,24.83
2023-12-05T18:25:23.410Z,24.88
2023-12-05T18:27:53.340Z,23.58
2023-12-05T18:30:20.290Z,25.40
2023-12-05T18:32:48.362Z,25.63
2023-12-05T18:35:15.932Z,27.15
2023-12-05T18:37:42.685Z,26.10
2023-12-05T18:40:11.031Z,26.08
2023-12-05T18:42:38.472Z,26.60
2023-12-05T18:45:05.556Z,28.02
2023-12-05T18:47:32.377Z,28.92
2023-12-05T18:50:00.637Z,25.33
2023-12-05T18:52:27.302Z,26.13
2023-12-05T18:54:54.531Z,26.40
2023-12-05T18:57:21.402Z,24.95
2023-12-05T18:59:48.217Z,23.55
2023-12-05T19:02:14.941Z,25.67
2023-12-05T19:04:41.671Z,25.27
2023-12-05T19:07:12.519Z,25.95
2023-12-05T19:09:40.024Z,26.83
2023-12-05T19:12:09.087Z,29.25
2023-12-05T19:14:35.837Z,29.77
2023-12-05T19:17:03.305Z,28.60
2023-12-05T19:19:30.169Z,27.02
2023-12-05T19:21:56.881Z,25.65
2023-12-05T19:24:23.523Z,27.88
2023-12-05T19:26:55.045Z,25.48
2023-12-05T19:29:24.284Z,26.90
2023-12-05T19:31:51.305Z,24.88
2023-12-05T19:34:18.465Z,25.08
2023-12-05T19:36:45.409Z,24.75
2023-12-05T19:39:13.124Z,26.13
2023-12-05T19:41:40.558Z,27.83
2023-12-05T19:44:09.857Z,23.80
2023-12-05T19:46:37.164Z,31.17
2023-12-05T19:49:05.396Z,25.27
2023-12-05T19:51:33.757Z,22.85
2023-12-05T19:54:00.597Z,24.25
2023-12-05T19:56:27.392Z,23.02
2023-12-05T19:58:55.331Z,23.92
2023-12-05T20:01:22.994Z,24.25
2023-12-05T20:03:49.958Z,22.30
2023-12-05T20:06:16.634Z,23.55
2023-12-05T20:08:43.845Z,23.38
2023-12-05T20:11:14.162Z,24.23
2023-12-05T20:13:40.785Z,23.52
2023-12-05T20:16:08.069Z,24.95
2023-12-05T20:18:34.952Z,24.50
2023-12-05T20:21:01.718Z,26.73
2023-12-05T20:23:28.366Z,26.58
2023-12-05T20:25:55.214Z,25.77
2023-12-05T20:28:21.916Z,26.80
2023-12-05T20:30:50.182Z,25.83
2023-12-05T20:33:16.946Z,25.17
2023-12-05T20:35:44.332Z,26.70
2023-12-05T20:38:12.051Z,28.00
2023-12-05T20:40:41.968Z,26.88
2023-12-05T20:43:09.031Z,26.45
2023-12-05T20:45:36.626Z,26.20
2023-12-05T20:48:04.281Z,25.95
2023-12-05T20:50:31.208Z,26.17
2023-12-05T20:53:00.401Z,26.88
2023-12-05T20:55:27.831Z,26.23
2023-12-05T20:57:55.257Z,26.85
2023-12-05T21:00:22.509Z,26.77
2023-12-05T21:02:49.248Z,26.58
2023-12-05T21:05:16.039Z,26.67
2023-12-05T21:07:45.077Z,26.52
2023-12-05T21:10:11.805Z,27.00
2023-12-05T21:12:38.792Z,26.30
2023-12-05T21:15:07.199Z,26.92
2023-12-05T21:17:35.313Z,26.27
2023-12-05T21:20:02.202Z,28.20
2023-12-05T21:22:28.905Z,27.30
2023-12-05T21:24:55.670Z,26.35
2023-12-05T21:27:22.573Z,26.55
2023-12-05T21:29:49.483Z,27.63
2023-12-05T21:32:16.898Z,27.95
2023-12-05T21:34:43.645Z,26.92
2023-12-05T21:37:10.479Z,27.95
2023-12-05T21:39:37.213Z,28.35
2023-12-05T21:42:04.163Z,27.55
2023-12-05T21:44:31.014Z,27.40
2023-12-05T21:46:57.687Z,29.23
2023-12-05T21:49:24.501Z,28.10
2023-12-05T21:51:51.246Z,28.08
2023-12-05T21:54:17.913Z,27.50
2023-12-05T21:56:44.647Z,28.75
2023-12-05T21:59:11.269Z,29.13
2023-12-05T22:01:38.010Z,27.67
2023-12-05T22:04:05.096Z,27.50
2023-12-05T22:06:32.091Z,28.02
2023-12-05T22:08:58.773Z,28.05
2023-12-05T22:11:25.360Z,28.55
2023-12-05T22:13:51.963Z,28.90
2023-12-05T22:16:18.639Z,29.48
2023-12-05T22:18:45.738Z,26.60
2023-12-05T22:21:12.738Z,29.80
2023-12-05T22:23:42.402Z,30.02
2023-12-05T22:26:09.935Z,29.52
2023-12-05T22:28:37.020Z,31.45
2023-12-05T22:31:05.587Z,31.00
2023-12-05T22:33:32.556Z,30.33
2023-12-05T22:35:59.442Z,29.33
2023-12-05T22:38:26.282Z,29.42
2023-12-05T22:40:52.986Z,30.15
2023-12-05T22:43:19.901Z,31.15
2023-12-05T22:45:46.595Z,30.65
2023-12-05T22:48:14.161Z,31.17
2023-12-05T22:50:40.971Z,31.05
2023-12-05T22:53:07.668Z,30.77
2023-12-05T22:55:39.626Z,29.70
2023-12-05T22:58:06.397Z,29.85
2023-12-05T23:00:33.179Z,28.80
2023-12-05T23:02:59.835Z,28.02
2023-12-05T23:05:29.207Z,29.42
2023-12-05T23:07:56.107Z,29.10
2023-12-05T23:10:23.001Z,28.77
2023-12-05T23:12:51.053Z,29.42
2023-12-05T23:15:17.800Z,29.40
2023-12-05T23:17:44.484Z,29.42
2023-12-05T23:20:11.352Z,30.15
2023-12-05T23:22:38.242Z,31.30
2023-12-05T23:25:06.203Z,30.25
2023-12-05T23:27:33.252Z,31.15
2023-12-05T23:29:59.946Z,30.85
2023-12-05T23:32:26.663Z,28.23
2023-12-05T23:34:53.375Z,30.77
2023-12-05T23:37:22.258Z,29.65
2023-12-05T23:39:49.544Z,28.55
2023-12-05T23:42:16.488Z,29.30
2023-12-05T23:44:43.450Z,28.98
2023-12-05T23:47:10.357Z,26.83
2023-12-05T23:49:37.209Z,27.42
2023-12-05T23:52:05.686Z,27.45
2023-12-05T23:54:32.431Z,28.98
2023-12-05T23:56:59.231Z,28.15
2023-12-05T23:59:25.853Z,28.15
